Nakhon Si Thammarat, Thailand

8:58 PM ICT on September 01, 2014 (GMT +0700)
Nakhon Si Thammarat | Change Station
CLOSE
Current Station
Airport
Location: Nakhon Si Thamma,
Elevation: 13 ft
Nearby Weather Stations

Elev 13 ft 8.54 °N, 99.94 °E | Updated 58 minutes ago

Mostly Cloudy
Mostly Cloudy
82 °F
Feels Like 90 °F
N
0
Wind Variable Wind from North

Today
High -- | Low -- °F
--% Chance of Precip.
Yesterday
High -- | Low -- °F
Precip. -- in
6:11 AM 6:28 PM
Waxing Crescent, 41% visible
Pressure 29.77 in
Visibility 6.2 miles
Clouds Scattered Clouds 2000 ft
Mostly Cloudy 30000 ft
Heat Index 90 °F
Dew Point 75 °F
Humidity 79%
Rainfall 0.00 in
Snow Depth Not available.
UV 0 out of 12
Pollen Not available.
Air Quality Not available.
Flu Activity Not available.
METAR VTSF 011300Z 00000KT 9999 SCT020 BKN300 28/24 Q1008 A2977 INFO N/RWY 19

More Conditions Fewer Conditions

Pressure 29.77 in
Visibility 6.2 miles
Clouds Scattered Clouds 2000 ft
Mostly Cloudy 30000 ft
Heat Index 90 °F
Dew Point 75 °F
Humidity 79%
Rainfall 0.00 in
Snow Depth Not available.
UV 0 out of 12
Pollen Not available.
Air Quality Not available.
Flu Activity Not available.
METAR VTSF 011300Z 00000KT 9999 SCT020 BKN300 28/24 Q1008 A2977 INFO N/RWY 19

More Conditions Fewer Conditions

10-Day Weather Forecast

Almanac

Astronomy

Sep. 01, 2014 Rise Set
Actual Time 6:11 AM ICT 6:28 PM ICT
Civil Twilight 5:50 AM ICT 6:49 PM ICT
Nautical Twilight 5:26 AM ICT 7:14 PM ICT
Astronomical Twilight 5:01 AM ICT 7:39 PM ICT
Moon 11:14 AM ICT 11:18 PM ICT
Length of Visible Light 12h 58m
Length of Day
12h 16m
Tomorrow will be 0m 27s shorter.
Waxing Crescent, 41% of the Moon is Illuminated
Today
Waxing Crescent
Sep 2
First Quarter
Sep 8
Full
Sep 15
Last Quarter
Sep 24
New

Yesterday's Extremes

Country Highs Country Lows

Community

WunderPhotos

Upload Photos

1,749,222 photos uploaded!

Nearby

Snow Depth

Not available.

Earthquake Activity

City Distance Mag. Time & Date
No recent earthquake activity has been reported nearby.
Minimum magnitude displayed is 2.5.

Coastal Water Temperatures

Place Temperature
No Stations Reporting

Nearby Weather Stations